メインページ
METAR-TAF:

METAR-TAF

空港 :

バグダード, イラク

バグダード国際空港

緯度: 33-15-45N, 経度: 44-14-04E, 海抜: 35m

現時点の気象観測

当レポートは1時間0分前の11:00(UTC)に作成
西/北西の風 9kt
気温 20°C
湿度 60%
気圧 1011 hPa
視程10km以上
高度3000ftの千切れ雲あり

METAR: ORBI 241100Z 30009KT 9999 BKN030 20/12 Q1011 NOSIG

時間: 15:00 (12:00 UTC)

予報

当レポートは2時間0分前の10:00(UTC)に作成
予報は24日の 12時(UTC)から 25日の 12時(UTC)まで有効
西/北西の風 8kt
視程: 8000m
高度3000ftの千切れ雲あり

TAF: ORBI 241000Z 2412/2512 30008KT 8000 BKN030

4,000以上の空港の気象観測と天気予報(METAR報とTAF報)

利用可能な観測所は地図上に黄色い丸と赤い丸で示す。

丸の上にカーソルを重ねると観測所名を参照できる。

次にクリックすると気象観測と天気予報を参照できる。

マップの切り替え:黒色「×」印の緑ボタンをクリックして拡大、「-」印の緑ボタンをクリックして縮小、緑色の三角印をクリックして隣りの地図に切り替え


METAR-TAF: